createdAt,value
2023-01-18T00:01:44.004Z,1.10
2023-01-18T00:04:15.861Z,1.10
2023-01-18T00:06:48.002Z,1.10
2023-01-18T00:09:19.793Z,1.10
2023-01-18T00:11:51.523Z,1.10
2023-01-18T00:14:23.300Z,1.10
2023-01-18T00:16:54.991Z,1.10
2023-01-18T00:19:26.720Z,1.10
2023-01-18T00:21:58.523Z,1.10
2023-01-18T00:24:30.369Z,1.10
2023-01-18T00:27:02.171Z,1.10
2023-01-18T00:29:33.949Z,1.10
2023-01-18T00:32:06.053Z,1.10
2023-01-18T00:34:37.836Z,1.10
2023-01-18T00:37:09.578Z,1.10
2023-01-18T00:43:39.875Z,1.10
2023-01-18T00:46:14.717Z,1.10
2023-01-18T00:48:46.737Z,1.10
2023-01-18T00:51:21.568Z,1.10
2023-01-18T00:53:53.384Z,1.10
2023-01-18T00:56:25.111Z,1.10
2023-01-18T00:58:56.898Z,1.10
2023-01-18T01:05:41.704Z,1.10
2023-01-18T01:08:17.937Z,1.00
2023-01-18T01:10:51.629Z,1.00
2023-01-18T01:13:42.171Z,1.00
2023-01-18T01:16:32.680Z,1.10
2023-01-18T01:19:22.828Z,1.10
2023-01-18T01:22:13.270Z,1.10
2023-01-18T01:25:03.663Z,1.00
2023-01-18T01:27:35.323Z,1.00
2023-01-18T01:30:07.952Z,1.00
2023-01-18T01:32:39.708Z,1.10
2023-01-18T01:35:11.695Z,1.10
2023-01-18T01:37:43.413Z,1.10
2023-01-18T01:40:15.287Z,1.10
2023-01-18T01:42:47.123Z,1.10
2023-01-18T01:45:19.596Z,1.10
2023-01-18T01:47:52.706Z,1.10
2023-01-18T01:50:31.406Z,1.10
2023-01-18T01:53:04.168Z,1.10
2023-01-18T01:55:37.979Z,1.10
2023-01-18T01:58:23.597Z,1.10
2023-01-18T02:00:55.721Z,1.10
2023-01-18T02:03:28.172Z,1.10
2023-01-18T02:06:14.438Z,1.10
2023-01-18T02:08:48.329Z,1.10
2023-01-18T02:11:20.071Z,1.10
2023-01-18T02:13:52.404Z,1.20
2023-01-18T02:16:44.177Z,1.20
2023-01-18T02:19:46.695Z,1.20
2023-01-18T02:22:34.214Z,1.20
2023-01-18T02:25:20.954Z,1.20
2023-01-18T02:28:21.500Z,1.20
2023-01-18T02:31:11.984Z,1.20
2023-01-18T02:34:01.749Z,1.20
2023-01-18T02:37:10.926Z,1.20
2023-01-18T02:39:48.477Z,1.20
2023-01-18T02:42:42.597Z,1.30
2023-01-18T02:45:51.971Z,1.30
2023-01-18T02:48:25.267Z,1.20
2023-01-18T02:50:56.976Z,1.20
2023-01-18T02:53:30.239Z,1.20
2023-01-18T02:56:08.151Z,1.20
2023-01-18T02:58:47.669Z,1.10
2023-01-18T03:01:30.389Z,1.10
2023-01-18T03:04:09.169Z,1.00
2023-01-18T03:06:47.265Z,1.00
2023-01-18T03:09:22.472Z,1.00
2023-01-18T03:12:25.508Z,1.00
2023-01-18T03:15:02.459Z,0.90
2023-01-18T03:17:53.930Z,0.90
2023-01-18T03:20:32.669Z,0.90
2023-01-18T03:23:39.782Z,0.90
2023-01-18T03:26:16.430Z,0.90
2023-01-18T03:29:12.460Z,0.80
2023-01-18T03:32:05.814Z,0.80
2023-01-18T03:35:03.312Z,0.80
2023-01-18T03:37:42.082Z,0.70
2023-01-18T03:40:18.264Z,0.80
2023-01-18T03:43:05.731Z,0.80
2023-01-18T03:45:41.852Z,0.90
2023-01-18T03:48:14.769Z,0.90
2023-01-18T03:50:57.135Z,0.90
2023-01-18T03:53:45.267Z,0.90
2023-01-18T03:56:35.267Z,0.90
2023-01-18T03:59:07.923Z,0.90
2023-01-18T04:01:39.869Z,0.80
2023-01-18T04:04:11.579Z,0.70
2023-01-18T04:06:43.272Z,0.80
2023-01-18T04:09:15.010Z,0.70
2023-01-18T04:11:46.685Z,0.70
2023-01-18T04:14:18.682Z,0.70
2023-01-18T04:16:50.842Z,0.70
2023-01-18T04:19:22.545Z,0.70
2023-01-18T04:21:54.276Z,0.80
2023-01-18T04:24:26.052Z,0.80
2023-01-18T04:26:57.805Z,0.80
2023-01-18T04:29:30.244Z,0.80
2023-01-18T04:32:01.948Z,0.80
2023-01-18T04:34:34.074Z,0.80
2023-01-18T04:37:05.871Z,0.80
2023-01-18T04:39:38.791Z,0.80
2023-01-18T04:42:10.535Z,0.80
2023-01-18T04:44:42.215Z,0.90
2023-01-18T04:47:13.894Z,0.80
2023-01-18T04:49:45.608Z,0.80
2023-01-18T04:52:19.081Z,0.80
2023-01-18T04:54:50.967Z,0.70
2023-01-18T04:57:22.790Z,0.70
2023-01-18T04:59:54.672Z,0.70
2023-01-18T05:02:26.709Z,0.70
2023-01-18T05:05:00.027Z,0.70
2023-01-18T05:07:34.182Z,0.70
2023-01-18T05:10:06.400Z,0.70
2023-01-18T05:12:38.209Z,0.70
2023-01-18T05:15:10.400Z,0.60
2023-01-18T05:17:42.098Z,0.60
2023-01-18T05:20:13.940Z,0.60
2023-01-18T05:22:45.632Z,0.60
2023-01-18T05:25:17.386Z,0.60
2023-01-18T05:27:49.150Z,0.60
2023-01-18T05:30:20.923Z,0.60
2023-01-18T05:32:52.625Z,0.60
2023-01-18T05:35:24.298Z,0.50
2023-01-18T05:37:56.037Z,0.50
2023-01-18T05:40:27.957Z,0.50
2023-01-18T05:42:59.968Z,0.50
2023-01-18T05:45:31.888Z,0.40
2023-01-18T05:48:04.020Z,0.40
2023-01-18T05:50:35.965Z,0.40
2023-01-18T05:53:07.788Z,0.50
2023-01-18T05:55:39.818Z,0.50
2023-01-18T05:58:11.859Z,0.50
2023-01-18T06:00:43.511Z,0.40
2023-01-18T06:03:15.184Z,0.30
2023-01-18T06:05:48.154Z,0.30
2023-01-18T06:08:20.804Z,0.30
2023-01-18T06:10:56.859Z,0.30
2023-01-18T06:13:30.813Z,0.20
2023-01-18T06:16:03.101Z,0.20
2023-01-18T06:18:34.939Z,0.30
2023-01-18T06:21:07.667Z,0.30
2023-01-18T06:23:39.578Z,0.20
2023-01-18T06:26:11.513Z,0.20
2023-01-18T06:28:43.279Z,0.30
2023-01-18T06:31:15.127Z,0.30
2023-01-18T06:33:46.839Z,0.20
2023-01-18T06:36:18.612Z,0.20
2023-01-18T06:38:50.335Z,0.20
2023-01-18T06:41:21.993Z,0.20
2023-01-18T06:43:53.733Z,0.20
2023-01-18T06:46:25.451Z,0.20
2023-01-18T06:48:57.323Z,0.20
2023-01-18T06:51:29.124Z,0.30
2023-01-18T06:54:00.808Z,0.30
2023-01-18T06:56:32.590Z,0.30
2023-01-18T06:59:04.729Z,0.30
2023-01-18T07:01:37.248Z,0.30
2023-01-18T07:04:09.276Z,0.30
2023-01-18T07:06:41.085Z,0.20
2023-01-18T07:09:13.545Z,0.30
2023-01-18T07:11:45.830Z,0.30
2023-01-18T07:14:17.535Z,0.30
2023-01-18T07:16:49.364Z,0.20
2023-01-18T07:19:21.109Z,0.30
2023-01-18T07:21:53.775Z,0.20
2023-01-18T07:24:25.567Z,0.20
2023-01-18T07:26:59.646Z,0.20
2023-01-18T07:29:31.901Z,0.20
2023-01-18T07:32:03.831Z,0.20
2023-01-18T07:34:35.658Z,0.20
2023-01-18T07:37:07.473Z,0.20
2023-01-18T07:39:39.227Z,0.20
2023-01-18T07:42:12.611Z,0.10
2023-01-18T07:44:44.318Z,0.10
2023-01-18T07:47:16.129Z,0.10
2023-01-18T07:49:47.788Z,0.20
2023-01-18T07:52:19.481Z,0.10
2023-01-18T07:54:51.752Z,0.10
2023-01-18T07:57:23.818Z,0.20
2023-01-18T07:59:55.544Z,0.10
2023-01-18T08:02:27.342Z,0.10
2023-01-18T08:04:59.142Z,0.20
2023-01-18T08:07:33.826Z,0.10
2023-01-18T08:10:05.849Z,0.10
2023-01-18T08:12:37.564Z,0.20
2023-01-18T08:15:09.734Z,0.10
2023-01-18T08:17:42.315Z,0.20
2023-01-18T08:20:14.580Z,0.20
2023-01-18T08:22:46.284Z,0.20
2023-01-18T08:25:18.005Z,0.20
2023-01-18T08:27:49.817Z,0.20
2023-01-18T08:30:21.614Z,0.30
2023-01-18T08:32:55.282Z,0.30
2023-01-18T08:35:29.590Z,0.20
2023-01-18T08:38:01.754Z,0.10
2023-01-18T08:40:33.614Z,0.20
2023-01-18T08:43:06.119Z,0.10
2023-01-18T08:45:38.404Z,0.20
2023-01-18T08:48:11.564Z,0.20
2023-01-18T08:50:43.453Z,0.30
2023-01-18T08:53:15.143Z,0.10
2023-01-18T08:55:46.840Z,0.20
2023-01-18T08:58:18.684Z,0.30
2023-01-18T09:00:50.684Z,0.30
2023-01-18T09:03:22.508Z,0.30
2023-01-18T09:05:54.232Z,0.40
2023-01-18T09:08:25.961Z,0.50
2023-01-18T09:11:05.561Z,0.60
2023-01-18T09:13:45.281Z,0.60
2023-01-18T09:16:26.412Z,0.70
2023-01-18T09:18:58.578Z,0.60
2023-01-18T09:21:30.483Z,0.70
2023-01-18T09:24:02.446Z,0.70
2023-01-18T09:26:34.131Z,0.70
2023-01-18T09:29:05.822Z,0.70
2023-01-18T09:31:37.592Z,0.70
2023-01-18T09:34:19.293Z,0.80
2023-01-18T09:36:52.531Z,1.10
2023-01-18T09:39:24.297Z,1.60
2023-01-18T09:42:02.273Z,1.70
2023-01-18T09:44:43.079Z,1.40
2023-01-18T09:47:21.687Z,1.30
2023-01-18T09:49:58.580Z,1.30
2023-01-18T09:52:33.298Z,1.30
2023-01-18T09:55:23.241Z,1.10
2023-01-18T09:58:20.990Z,1.10
2023-01-18T10:00:58.936Z,1.10
2023-01-18T10:03:47.501Z,1.20
2023-01-18T10:06:26.907Z,1.30
2023-01-18T10:09:04.666Z,1.30
2023-01-18T10:11:48.093Z,1.30
2023-01-18T10:14:44.263Z,1.10
2023-01-18T10:17:23.071Z,1.10
2023-01-18T10:19:54.805Z,1.10
2023-01-18T10:22:34.296Z,1.20
2023-01-18T10:25:14.637Z,0.90
2023-01-18T10:28:10.888Z,0.90
2023-01-18T10:31:03.723Z,1.10
2023-01-18T10:33:42.165Z,0.80
2023-01-18T10:36:18.800Z,0.80
2023-01-18T10:38:53.851Z,0.90
2023-01-18T10:41:31.384Z,0.90
2023-01-18T10:44:03.228Z,1.00
2023-01-18T10:46:35.573Z,0.90
2023-01-18T10:49:09.177Z,0.90
2023-01-18T10:51:41.003Z,1.00
2023-01-18T10:54:18.811Z,0.90
2023-01-18T10:57:03.191Z,0.90
2023-01-18T10:59:39.795Z,0.90
2023-01-18T11:02:34.737Z,0.80
2023-01-18T11:05:21.119Z,0.90
2023-01-18T11:08:11.879Z,0.80
2023-01-18T11:10:43.861Z,0.90
2023-01-18T11:13:33.221Z,0.90
2023-01-18T11:16:14.483Z,0.90
2023-01-18T11:19:01.332Z,0.80
2023-01-18T11:21:41.047Z,0.90
2023-01-18T11:24:27.508Z,0.90
2023-01-18T11:27:05.807Z,0.90
2023-01-18T11:29:43.202Z,1.00
2023-01-18T11:32:28.152Z,1.00
2023-01-18T11:35:00.230Z,0.90
2023-01-18T11:37:35.437Z,0.80
2023-01-18T11:40:19.583Z,0.90
2023-01-18T11:42:55.002Z,0.80
2023-01-18T11:45:36.006Z,0.80
2023-01-18T11:48:43.862Z,0.90
2023-01-18T11:51:36.104Z,1.00
2023-01-18T11:54:30.696Z,1.00
2023-01-18T11:57:03.140Z,1.10
2023-01-18T11:59:42.855Z,1.10
2023-01-18T12:02:17.656Z,1.20
2023-01-18T12:05:16.617Z,1.20
2023-01-18T12:08:06.920Z,1.20
2023-01-18T12:10:49.432Z,1.20
2023-01-18T12:13:41.236Z,1.30
2023-01-18T12:16:21.113Z,1.10
2023-01-18T12:19:08.180Z,1.20
2023-01-18T12:21:51.644Z,1.40
2023-01-18T12:25:00.118Z,1.30
2023-01-18T12:27:51.027Z,1.30
2023-01-18T12:30:54.925Z,1.20
2023-01-18T12:33:45.619Z,1.20
2023-01-18T12:36:30.443Z,1.00
2023-01-18T12:39:18.627Z,1.10
2023-01-18T12:41:59.614Z,1.20
2023-01-18T12:44:47.255Z,1.30
2023-01-18T12:47:18.946Z,1.30
2023-01-18T12:49:57.275Z,1.40
2023-01-18T12:52:33.155Z,1.50
2023-01-18T12:55:06.351Z,1.60
2023-01-18T12:57:38.091Z,1.60
2023-01-18T13:00:21.428Z,1.60
2023-01-18T13:02:57.438Z,1.60
2023-01-18T13:05:43.134Z,1.70
2023-01-18T13:09:05.351Z,1.70
2023-01-18T13:11:41.595Z,1.50
2023-01-18T13:14:51.524Z,1.30
2023-01-18T13:17:42.429Z,1.20
2023-01-18T13:20:19.436Z,1.40
2023-01-18T13:22:56.960Z,1.40
2023-01-18T13:25:40.896Z,1.30
2023-01-18T13:28:23.357Z,1.30
2023-01-18T13:31:03.171Z,1.30
2023-01-18T13:33:39.286Z,1.20
2023-01-18T13:36:14.379Z,1.30
2023-01-18T13:38:59.084Z,1.20
2023-01-18T13:41:31.081Z,1.30
2023-01-18T13:44:06.674Z,1.30
2023-01-18T13:46:39.529Z,1.30
2023-01-18T13:49:36.625Z,1.20
2023-01-18T13:52:32.060Z,1.20
2023-01-18T13:55:26.068Z,1.00
2023-01-18T13:57:58.240Z,0.90
2023-01-18T14:04:32.292Z,1.00
2023-01-18T14:07:06.367Z,1.10
2023-01-18T14:09:46.311Z,1.10
2023-01-18T14:12:51.335Z,1.10
2023-01-18T14:15:38.710Z,1.20
2023-01-18T14:18:28.891Z,1.70
2023-01-18T14:21:00.573Z,2.00
2023-01-18T14:23:55.684Z,2.00
2023-01-18T14:26:31.727Z,2.00
2023-01-18T14:29:08.000Z,2.00
2023-01-18T14:31:45.566Z,1.90
2023-01-18T14:34:30.166Z,1.70
2023-01-18T14:37:02.915Z,1.60
2023-01-18T14:39:34.669Z,1.40
2023-01-18T14:42:06.568Z,1.40
2023-01-18T14:44:57.717Z,1.30
2023-01-18T14:47:33.559Z,1.30
2023-01-18T14:50:15.149Z,1.30
2023-01-18T14:52:49.708Z,1.30
2023-01-18T14:55:30.061Z,1.40
2023-01-18T14:58:17.944Z,1.30
2023-01-18T15:00:53.877Z,1.30
2023-01-18T15:03:30.268Z,1.30
2023-01-18T15:06:10.531Z,1.20
2023-01-18T15:08:45.964Z,1.20
2023-01-18T15:11:17.769Z,1.30
2023-01-18T15:13:51.897Z,1.30
2023-01-18T15:16:32.347Z,1.20
2023-01-18T15:19:04.541Z,1.30
2023-01-18T15:21:36.442Z,1.40
2023-01-18T15:24:14.652Z,1.40
2023-01-18T15:26:52.776Z,1.40
2023-01-18T15:29:34.046Z,1.30
2023-01-18T15:32:20.603Z,1.20
2023-01-18T15:34:55.016Z,1.20
2023-01-18T15:37:33.087Z,1.20
2023-01-18T15:40:26.558Z,1.20
2023-01-18T15:43:08.649Z,1.10
2023-01-18T15:45:49.381Z,1.00
2023-01-18T15:48:23.316Z,1.00
2023-01-18T15:51:06.777Z,1.00
2023-01-18T15:53:45.839Z,1.00
2023-01-18T15:56:25.357Z,1.00
2023-01-18T15:59:00.618Z,1.00
2023-01-18T16:01:35.963Z,0.90
2023-01-18T16:04:13.593Z,0.90
2023-01-18T16:06:45.629Z,0.90
2023-01-18T16:09:20.690Z,0.90
2023-01-18T16:11:56.364Z,0.90
2023-01-18T16:14:28.192Z,0.90
2023-01-18T16:17:18.034Z,1.00
2023-01-18T16:19:57.924Z,1.00
2023-01-18T16:22:36.259Z,1.10
2023-01-18T16:25:16.438Z,1.10
2023-01-18T16:27:55.038Z,1.20
2023-01-18T16:30:39.417Z,1.20
2023-01-18T16:33:17.549Z,1.20
2023-01-18T16:35:49.503Z,1.20
2023-01-18T16:38:21.466Z,1.20
2023-01-18T16:40:53.206Z,1.10
2023-01-18T16:43:29.233Z,1.10
2023-01-18T16:46:02.993Z,1.20
2023-01-18T16:48:36.909Z,1.10
2023-01-18T16:51:14.293Z,1.10
2023-01-18T16:53:47.045Z,1.00
2023-01-18T16:56:18.818Z,1.10
2023-01-18T16:58:51.320Z,1.00
2023-01-18T17:01:23.133Z,1.00
2023-01-18T17:03:54.880Z,1.00
2023-01-18T17:06:29.244Z,1.00
2023-01-18T17:09:01.071Z,1.00
2023-01-18T17:11:32.727Z,0.90
2023-01-18T17:14:04.523Z,1.00
2023-01-18T17:16:36.336Z,1.00
2023-01-18T17:19:12.191Z,1.00
2023-01-18T17:21:46.940Z,1.00
2023-01-18T17:24:21.367Z,1.00
2023-01-18T17:26:53.130Z,0.90
2023-01-18T17:29:24.942Z,0.90
2023-01-18T17:31:56.777Z,0.90
2023-01-18T17:34:30.032Z,0.80
2023-01-18T17:37:03.500Z,0.80
2023-01-18T17:39:50.005Z,0.80
2023-01-18T17:42:30.376Z,0.80
2023-01-18T17:45:02.909Z,0.80
2023-01-18T17:47:37.287Z,0.80
2023-01-18T17:50:14.331Z,0.80
2023-01-18T17:52:46.152Z,0.80
2023-01-18T17:55:24.328Z,0.80
2023-01-18T17:57:59.355Z,0.80
2023-01-18T18:00:31.131Z,0.80
2023-01-18T18:03:03.205Z,0.70
2023-01-18T18:05:35.288Z,0.70
2023-01-18T18:08:07.760Z,0.70
2023-01-18T18:10:42.632Z,0.60
2023-01-18T18:13:14.385Z,0.50
2023-01-18T18:15:49.120Z,0.40
2023-01-18T18:18:23.559Z,0.40
2023-01-18T18:21:01.581Z,0.40
2023-01-18T18:23:34.691Z,0.40
2023-01-18T18:26:06.656Z,0.30
2023-01-18T18:28:38.401Z,0.30
2023-01-18T18:31:15.904Z,0.30
2023-01-18T18:33:47.650Z,0.20
2023-01-18T18:36:19.404Z,0.20
2023-01-18T18:38:51.215Z,0.20
2023-01-18T18:41:22.903Z,0.10
2023-01-18T18:43:54.626Z,0.10
2023-01-18T18:46:26.434Z,0.10
2023-01-18T18:48:58.254Z,0.10
2023-01-18T18:51:31.332Z,0.00
2023-01-18T18:54:04.795Z,0.00
2023-01-18T18:56:36.556Z,0.00
2023-01-18T18:59:08.311Z,-0.10
2023-01-18T19:01:40.057Z,0.00
2023-01-18T19:04:11.975Z,0.00
2023-01-18T19:06:43.647Z,-0.10
2023-01-18T19:09:15.398Z,-0.20
2023-01-18T19:11:55.104Z,-0.20
2023-01-18T19:14:27.622Z,-0.40
2023-01-18T19:17:00.135Z,-0.40
2023-01-18T19:19:31.990Z,-0.40
2023-01-18T19:22:03.842Z,-0.50
2023-01-18T19:24:36.837Z,-0.50
2023-01-18T19:27:08.728Z,-0.60
2023-01-18T19:29:41.080Z,-0.60
2023-01-18T19:32:12.826Z,-0.60
2023-01-18T19:34:44.491Z,-0.60
2023-01-18T19:37:16.311Z,-0.60
2023-01-18T19:39:47.975Z,-0.60
2023-01-18T19:42:19.791Z,-0.70
2023-01-18T19:44:52.023Z,-0.70
2023-01-18T19:47:25.680Z,-0.70
2023-01-18T19:49:57.395Z,-0.80
2023-01-18T19:52:32.529Z,-0.80
2023-01-18T19:55:05.269Z,-0.80
2023-01-18T19:57:36.976Z,-0.90
2023-01-18T20:00:10.137Z,-0.80
2023-01-18T20:02:42.268Z,-0.90
2023-01-18T20:05:14.063Z,-1.00
2023-01-18T20:07:45.845Z,-1.00
2023-01-18T20:10:20.236Z,-1.00
2023-01-18T20:12:52.081Z,-1.00
2023-01-18T20:15:23.831Z,-1.10
2023-01-18T20:17:55.538Z,-1.10
2023-01-18T20:20:32.696Z,-1.20
2023-01-18T20:23:04.770Z,-1.20
2023-01-18T20:25:36.522Z,-1.30
2023-01-18T20:28:08.211Z,-1.30
2023-01-18T20:30:39.953Z,-1.40
2023-01-18T20:33:11.661Z,-1.40
2023-01-18T20:35:44.218Z,-1.40
2023-01-18T20:38:16.011Z,-1.40
2023-01-18T20:40:47.771Z,-1.40
2023-01-18T20:43:19.474Z,-1.50
2023-01-18T20:46:06.259Z,-1.50
2023-01-18T20:48:38.408Z,-1.50
2023-01-18T20:51:10.157Z,-1.60
2023-01-18T20:53:41.896Z,-1.60
2023-01-18T20:56:28.345Z,-1.60
2023-01-18T20:59:00.824Z,-1.70
2023-01-18T21:01:33.257Z,-1.70
2023-01-18T21:04:05.503Z,-1.70
2023-01-18T21:06:37.608Z,-1.70
2023-01-18T21:09:09.409Z,-1.80
2023-01-18T21:11:41.178Z,-1.70
2023-01-18T21:14:12.988Z,-1.80
2023-01-18T21:16:44.872Z,-1.80
2023-01-18T21:19:17.143Z,-1.90
2023-01-18T21:21:48.918Z,-1.90
2023-01-18T21:24:20.677Z,-1.90
2023-01-18T21:26:52.465Z,-1.90
2023-01-18T21:29:24.260Z,-2.00
2023-01-18T21:31:56.619Z,-1.90
2023-01-18T21:34:28.365Z,-1.80
2023-01-18T21:37:00.107Z,-1.90
2023-01-18T21:39:31.864Z,-1.70
2023-01-18T21:42:21.960Z,-1.60
2023-01-18T21:45:29.292Z,-1.60
2023-01-18T21:48:06.619Z,-1.70
2023-01-18T21:50:59.779Z,-1.70
2023-01-18T21:53:50.217Z,-1.70
2023-01-18T21:56:22.103Z,-1.80
2023-01-18T21:58:54.513Z,-1.80
2023-01-18T22:01:34.270Z,-1.80
2023-01-18T22:04:27.363Z,-1.80
2023-01-18T22:06:59.988Z,-1.80
2023-01-18T22:09:31.808Z,-1.70
2023-01-18T22:12:03.721Z,-1.60
2023-01-18T22:14:35.454Z,-1.50
2023-01-18T22:17:07.567Z,-1.60
2023-01-18T22:19:39.984Z,-1.60
2023-01-18T22:22:12.603Z,-1.70
2023-01-18T22:24:44.439Z,-1.80
2023-01-18T22:27:16.106Z,-1.80
2023-01-18T22:29:48.108Z,-1.80
2023-01-18T22:32:19.855Z,-1.80
2023-01-18T22:34:51.574Z,-1.80
2023-01-18T22:37:24.321Z,-1.80
2023-01-18T22:39:56.091Z,-1.90
2023-01-18T22:42:28.109Z,-1.90
2023-01-18T22:45:00.014Z,-1.90
2023-01-18T22:47:31.761Z,-2.00
2023-01-18T22:50:03.575Z,-2.00
2023-01-18T22:52:35.325Z,-2.00
2023-01-18T22:55:07.368Z,-2.00
2023-01-18T22:57:39.242Z,-1.90
2023-01-18T23:00:11.587Z,-2.00
2023-01-18T23:02:43.312Z,-2.00
2023-01-18T23:05:15.377Z,-2.00
2023-01-18T23:07:47.119Z,-2.10
2023-01-18T23:10:19.052Z,-2.10
2023-01-18T23:12:53.093Z,-2.10
2023-01-18T23:15:43.471Z,-2.10
2023-01-18T23:18:15.372Z,-2.10
2023-01-18T23:20:47.115Z,-2.20
2023-01-18T23:23:18.854Z,-2.30
2023-01-18T23:25:58.311Z,-2.40
2023-01-18T23:28:48.009Z,-2.50
2023-01-18T23:31:19.780Z,-2.60
2023-01-18T23:33:51.570Z,-2.60
2023-01-18T23:36:23.697Z,-2.70
2023-01-18T23:39:13.915Z,-2.70
2023-01-18T23:42:04.342Z,-2.80
2023-01-18T23:44:54.744Z,-2.80
2023-01-18T23:47:45.340Z,-2.80
2023-01-18T23:50:35.981Z,-2.70
2023-01-18T23:53:31.641Z,-2.50
2023-01-18T23:56:04.738Z,-2.50
2023-01-18T23:58:36.605Z,-2.60
